Time;durP1;ratioP1;P1;durP2;ratioP2;P2;SDS_P1;SDS_P2;PMS_P1;PMS_P2;Temp;Humidity;BMP_temperature;BMP_pressure;BME280_temperature;BME280_humidity;BME280_pressure;Samples;Min_cycle;Max_cycle;Signal;HPM_P1;HPM_P2
2022/08/29 00:01:09;;;;;;;3.30;1.67;;;16.90;99.90;;;;;;7341611;19;109824;-75
2022/08/29 00:03:36;;;;;;;3.47;1.70;;;17.00;99.90;;;;;;7341743;19;111575;-74
2022/08/29 00:06:04;;;;;;;4.35;1.75;;;16.90;99.90;;;;;;7341615;19;113258;-74
2022/08/29 00:08:31;;;;;;;5.75;1.55;;;16.90;99.90;;;;;;7341890;19;109324;-74
2022/08/29 00:10:58;;;;;;;7.32;2.15;;;16.80;99.90;;;;;;7342945;19;109432;-74
2022/08/29 00:13:26;;;;;;;5.05;1.80;;;16.80;99.90;;;;;;7342703;19;114302;-75
2022/08/29 00:15:53;;;;;;;3.88;1.70;;;16.80;99.90;;;;;;7346455;19;109920;-74
2022/08/29 00:18:20;;;;;;;6.25;1.75;;;16.80;99.90;;;;;;7338496;19;110873;-74
2022/08/29 00:20:48;;;;;;;4.45;1.58;;;16.70;99.90;;;;;;7341995;19;109426;-74
2022/08/29 00:23:15;;;;;;;6.03;1.90;;;16.70;99.90;;;;;;7340093;19;110362;-74
2022/08/29 00:25:43;;;;;;;3.90;1.70;;;16.70;99.90;;;;;;7341100;19;110462;-74
2022/08/29 00:28:10;;;;;;;3.33;2.00;;;16.70;99.90;;;;;;7340627;19;109434;-74
2022/08/29 00:30:38;;;;;;;4.22;2.05;;;16.60;99.90;;;;;;7342187;19;110539;-74
2022/08/29 00:33:05;;;;;;;3.25;2.22;;;16.70;99.90;;;;;;7340262;19;110862;-74
2022/08/29 00:35:36;;;;;;;5.78;2.08;;;16.70;99.90;;;;;;7345156;19;109433;-74
2022/08/29 00:38:06;;;;;;;6.55;1.92;;;16.70;99.90;;;;;;7341049;19;110719;-74
2022/08/29 00:40:40;;;;;;;5.28;1.85;;;16.60;99.90;;;;;;7341819;19;110022;-74
2022/08/29 00:43:10;;;;;;;5.50;1.90;;;16.70;99.90;;;;;;7341137;19;110630;-74
2022/08/29 00:45:45;;;;;;;4.88;1.98;;;16.70;99.90;;;;;;7341250;19;111260;-74
2022/08/29 00:48:14;;;;;;;5.43;2.08;;;16.70;99.90;;;;;;7342317;19;109364;-74
2022/08/29 00:50:53;;;;;;;9.63;2.63;;;16.60;99.90;;;;;;7340467;19;111114;-74
2022/08/29 00:53:33;;;;;;;6.53;2.10;;;16.60;99.90;;;;;;7340087;19;110251;-74
2022/08/29 00:56:02;;;;;;;6.60;2.20;;;16.60;99.90;;;;;;7337200;19;110114;-74
2022/08/29 00:58:40;;;;;;;4.80;2.20;;;16.60;99.90;;;;;;7343783;19;111207;-74
2022/08/29 01:01:07;;;;;;;4.75;2.15;;;16.50;99.90;;;;;;7342005;19;110025;-74
2022/08/29 01:03:35;;;;;;;4.43;2.42;;;16.40;99.90;;;;;;7340892;19;110428;-74
2022/08/29 01:06:12;;;;;;;5.05;2.30;;;16.40;99.90;;;;;;7340794;19;111131;-75
2022/08/29 01:08:40;;;;;;;10.80;2.38;;;16.30;99.90;;;;;;7339605;19;109685;-74
2022/08/29 01:13:56;;;;;;;6.10;1.92;;;16.30;99.90;;;;;;7340328;19;111180;-74
2022/08/29 01:16:25;;;;;;;6.43;2.17;;;16.30;99.90;;;;;;7335533;19;109418;-74
2022/08/29 01:18:57;;;;;;;6.45;2.40;;;16.20;99.90;;;;;;7340760;19;110542;-74
2022/08/29 01:21:33;;;;;;;5.90;2.45;;;16.30;99.90;;;;;;7343965;19;110129;-74
2022/08/29 01:24:15;;;;;;;5.85;2.50;;;16.20;99.90;;;;;;7340965;19;109958;-74
2022/08/29 01:26:45;;;;;;;5.20;2.60;;;16.20;99.90;;;;;;7340462;19;111195;-74
2022/08/29 01:29:14;;;;;;;5.78;2.40;;;16.30;99.90;;;;;;7338213;19;109499;-74
2022/08/29 01:31:48;;;;;;;4.90;2.25;;;16.30;99.90;;;;;;7338953;19;110851;-74
2022/08/29 01:34:25;;;;;;;5.15;1.95;;;16.30;99.90;;;;;;7338797;19;110412;-74
2022/08/29 01:37:04;;;;;;;6.32;2.13;;;16.30;99.90;;;;;;7337774;19;110333;-74
2022/08/29 01:39:34;;;;;;;5.30;2.10;;;16.30;99.90;;;;;;7338010;19;110543;-74
2022/08/29 01:42:06;;;;;;;8.93;2.33;;;16.30;99.90;;;;;;7339183;19;112302;-74
2022/08/29 01:44:33;;;;;;;6.20;2.60;;;16.30;99.90;;;;;;7345883;19;110128;-74
2022/08/29 01:47:00;;;;;;;6.82;2.67;;;16.20;99.90;;;;;;7339603;19;112451;-74
2022/08/29 01:49:31;;;;;;;4.63;2.67;;;16.30;99.90;;;;;;7339198;19;109991;-74
2022/08/29 01:51:59;;;;;;;7.20;2.83;;;16.20;99.90;;;;;;7338206;19;112412;-74
2022/08/29 01:54:28;;;;;;;11.00;2.97;;;16.20;99.90;;;;;;7339370;19;111551;-76
2022/08/29 01:56:55;;;;;;;8.13;2.90;;;16.10;99.90;;;;;;7337077;19;109505;-74
2022/08/29 01:59:26;;;;;;;10.20;2.95;;;16.00;99.90;;;;;;7338227;19;110203;-74
2022/08/29 02:02:10;;;;;;;7.25;2.78;;;16.00;99.90;;;;;;7338460;19;112944;-74
2022/08/29 02:04:39;;;;;;;5.65;2.90;;;16.00;99.90;;;;;;7338391;19;109442;-74
2022/08/29 02:07:06;;;;;;;10.40;3.10;;;16.00;99.90;;;;;;7342233;19;110416;-74
2022/08/29 02:09:39;;;;;;;8.23;3.28;;;16.00;99.90;;;;;;7339089;19;109573;-74
2022/08/29 02:12:12;;;;;;;8.15;3.00;;;15.90;99.90;;;;;;7336782;19;109811;-74
2022/08/29 02:14:41;;;;;;;6.72;3.17;;;15.90;99.90;;;;;;7337968;19;112045;-74
2022/08/29 02:17:08;;;;;;;9.73;3.47;;;15.80;99.90;;;;;;7338318;19;109295;-74
2022/08/29 02:19:37;;;;;;;7.88;3.60;;;15.80;99.90;;;;;;7338511;19;110278;-74
2022/08/29 02:22:06;;;;;;;9.73;3.75;;;15.70;99.90;;;;;;7338171;19;110540;-74
2022/08/29 02:24:33;;;;;;;8.25;3.85;;;15.80;99.90;;;;;;7338407;19;110207;-74
2022/08/29 02:27:01;;;;;;;5.53;3.50;;;15.80;99.90;;;;;;7339011;19;110478;-74
2022/08/29 02:29:28;;;;;;;7.78;4.13;;;15.80;99.90;;;;;;7343601;19;111644;-74
2022/08/29 02:32:13;;;;;;;10.20;4.97;;;15.70;99.90;;;;;;7338361;19;111425;-74
2022/08/29 02:34:43;;;;;;;10.68;4.60;;;15.70;99.90;;;;;;7337011;19;111214;-75
2022/08/29 02:37:13;;;;;;;11.52;4.45;;;15.70;99.90;;;;;;7334687;19;109896;-74
2022/08/29 02:39:40;;;;;;;12.80;5.00;;;15.60;99.90;;;;;;7336927;19;109701;-74
2022/08/29 02:42:07;;;;;;;9.57;5.00;;;15.60;99.90;;;;;;7336049;19;111865;-74
2022/08/29 02:44:34;;;;;;;10.40;4.43;;;15.60;99.90;;;;;;7336309;19;109529;-74
2022/08/29 02:47:01;;;;;;;17.65;4.85;;;15.60;99.90;;;;;;7336987;19;109921;-74
2022/08/29 02:49:28;;;;;;;10.88;4.30;;;15.60;99.90;;;;;;7341386;19;110392;-74
2022/08/29 02:51:56;;;;;;;8.00;4.20;;;15.60;99.90;;;;;;7337974;19;112598;-74
2022/08/29 02:54:23;;;;;;;13.43;5.07;;;15.60;99.90;;;;;;7334999;19;111240;-75
2022/08/29 02:56:50;;;;;;;11.05;4.90;;;15.60;99.90;;;;;;7332885;19;109503;-74
2022/08/29 02:59:17;;;;;;;11.25;5.20;;;15.60;99.90;;;;;;7336423;19;109489;-74
2022/08/29 03:01:44;;;;;;;10.38;4.55;;;15.50;99.90;;;;;;7334477;19;110137;-74
2022/08/29 03:04:11;;;;;;;11.85;4.80;;;15.50;99.90;;;;;;7336493;19;109572;-74
2022/08/29 03:06:38;;;;;;;11.00;5.40;;;15.50;99.90;;;;;;7337248;19;110052;-74
2022/08/29 03:09:05;;;;;;;9.75;4.60;;;15.50;99.90;;;;;;7337118;19;111391;-75
2022/08/29 03:11:33;;;;;;;14.00;4.57;;;15.50;99.90;;;;;;7342253;19;109518;-74
2022/08/29 03:14:00;;;;;;;7.40;4.57;;;15.50;99.90;;;;;;7336103;19;110583;-74
2022/08/29 03:16:27;;;;;;;17.42;4.90;;;15.50;99.90;;;;;;7334587;19;110623;-74
2022/08/29 03:18:55;;;;;;;11.75;4.53;;;15.50;99.90;;;;;;7342505;19;110793;-74
2022/08/29 03:21:25;;;;;;;14.23;5.10;;;15.50;99.90;;;;;;7340136;19;110106;-75
2022/08/29 03:23:55;;;;;;;9.60;4.90;;;15.50;99.90;;;;;;7343793;19;109308;-74
2022/08/29 03:26:23;;;;;;;14.88;4.90;;;15.50;99.90;;;;;;7343464;19;110859;-74
2022/08/29 03:28:50;;;;;;;9.48;4.22;;;15.50;99.90;;;;;;7343767;19;110418;-78
2022/08/29 03:31:17;;;;;;;10.10;4.18;;;15.50;99.90;;;;;;7342696;19;109922;-77
2022/08/29 03:33:45;;;;;;;8.90;3.97;;;15.50;99.90;;;;;;7346906;19;110891;-75
2022/08/29 03:36:12;;;;;;;7.47;4.40;;;15.60;99.90;;;;;;7340448;19;109428;-75
2022/08/29 03:38:42;;;;;;;8.60;3.83;;;15.50;99.90;;;;;;7343611;19;110444;-76
2022/08/29 03:41:09;;;;;;;12.85;3.95;;;15.60;99.90;;;;;;7341232;19;111587;-78
2022/08/29 03:43:37;;;;;;;10.35;4.55;;;15.60;99.90;;;;;;7342589;19;109699;-77
2022/08/29 03:46:04;;;;;;;7.57;3.92;;;15.60;99.90;;;;;;7342659;19;110610;-74
2022/08/29 03:48:32;;;;;;;15.52;4.63;;;15.70;99.90;;;;;;7342165;19;112582;-73
2022/08/29 03:50:59;;;;;;;14.02;4.90;;;15.70;99.90;;;;;;7342620;19;110150;-73
2022/08/29 03:53:26;;;;;;;12.60;4.47;;;15.60;99.90;;;;;;7342656;19;110195;-72
2022/08/29 03:55:56;;;;;;;10.02;4.57;;;15.60;99.90;;;;;;7345652;19;110282;-74
2022/08/29 03:58:23;;;;;;;10.77;3.95;;;15.60;99.90;;;;;;7342723;19;110532;-73
2022/08/29 04:00:50;;;;;;;10.55;4.40;;;15.50;99.90;;;;;;7342147;19;110107;-74
2022/08/29 04:03:18;;;;;;;13.60;5.35;;;15.40;99.90;;;;;;7342575;19;109928;-73
2022/08/29 04:05:50;;;;;;;11.27;4.90;;;15.40;99.90;;;;;;7342265;19;110481;-72
2022/08/29 04:08:21;;;;;;;9.85;3.97;;;15.50;99.90;;;;;;7342283;19;110552;-72
2022/08/29 04:10:48;;;;;;;9.57;4.28;;;15.60;99.90;;;;;;7342278;19;109344;-72
2022/08/29 04:13:15;;;;;;;10.02;4.55;;;15.60;99.90;;;;;;7342388;19;110558;-74
2022/08/29 04:15:42;;;;;;;8.15;5.00;;;15.60;99.90;;;;;;7342505;19;111121;-71
2022/08/29 04:18:10;;;;;;;9.00;4.30;;;15.60;99.90;;;;;;7347390;19;109427;-72
2022/08/29 04:20:40;;;;;;;11.98;4.80;;;15.50;99.90;;;;;;7341204;19;111523;-72
2022/08/29 04:23:07;;;;;;;8.70;4.70;;;15.50;99.90;;;;;;7342059;19;110295;-72
2022/08/29 04:25:35;;;;;;;9.73;4.47;;;15.50;99.90;;;;;;7341474;19;109555;-72
2022/08/29 04:28:08;;;;;;;12.45;4.57;;;15.40;99.90;;;;;;7341973;19;111034;-73
2022/08/29 04:30:37;;;;;;;7.57;4.47;;;15.40;99.90;;;;;;7341443;19;109337;-72
2022/08/29 04:33:04;;;;;;;8.15;4.70;;;15.30;99.90;;;;;;7341736;19;109882;-72
2022/08/29 04:35:31;;;;;;;13.07;4.53;;;15.40;99.90;;;;;;7338743;19;111821;-71
2022/08/29 04:37:58;;;;;;;11.18;5.55;;;15.30;99.90;;;;;;7339501;19;110040;-72
2022/08/29 04:40:25;;;;;;;12.02;4.93;;;15.30;99.90;;;;;;7345442;19;110421;-72
2022/08/29 04:42:53;;;;;;;12.68;4.75;;;15.30;99.90;;;;;;7339541;19;110425;-72
2022/08/29 04:45:21;;;;;;;11.30;4.93;;;15.30;99.90;;;;;;7341599;19;110624;-71
2022/08/29 04:47:48;;;;;;;9.73;4.43;;;15.30;99.90;;;;;;7341021;19;111379;-77
2022/08/29 04:50:19;;;;;;;13.07;4.53;;;15.30;99.90;;;;;;7341087;19;109505;-79
2022/08/29 04:52:47;;;;;;;7.55;4.50;;;15.30;99.90;;;;;;7341371;19;110382;-77
2022/08/29 04:55:16;;;;;;;12.20;4.45;;;15.20;99.90;;;;;;7341272;19;114332;-76
2022/08/29 04:57:49;;;;;;;12.07;5.10;;;15.20;99.90;;;;;;7338171;19;110573;-78
2022/08/29 05:00:20;;;;;;;6.50;4.85;;;15.20;99.90;;;;;;7345819;19;109424;-77
2022/08/29 05:02:47;;;;;;;9.13;5.00;;;15.20;99.90;;;;;;7340525;19;109994;-78
2022/08/29 05:05:15;;;;;;;14.27;4.75;;;15.20;99.90;;;;;;7340039;19;110477;-76
2022/08/29 05:07:44;;;;;;;10.98;4.85;;;15.20;99.90;;;;;;7339921;19;111418;-76
2022/08/29 05:10:16;;;;;;;12.75;4.65;;;15.20;99.90;;;;;;7341124;19;109890;-72
2022/08/29 05:12:43;;;;;;;7.45;5.15;;;15.20;99.90;;;;;;7340838;19;112073;-72
2022/08/29 05:15:11;;;;;;;8.10;5.32;;;15.20;99.90;;;;;;7338947;19;110982;-72
2022/08/29 05:17:38;;;;;;;12.88;5.63;;;15.10;99.90;;;;;;7338247;19;109812;-73
2022/08/29 05:20:07;;;;;;;7.55;4.90;;;15.10;99.90;;;;;;7339683;19;110823;-72
2022/08/29 05:22:34;;;;;;;10.45;5.03;;;15.10;99.90;;;;;;7346119;19;111255;-74
2022/08/29 05:25:03;;;;;;;12.40;5.05;;;15.10;99.90;;;;;;7339745;19;111617;-72
2022/08/29 05:27:31;;;;;;;9.30;4.78;;;15.20;99.90;;;;;;7339264;19;112154;-72
2022/08/29 05:29:58;;;;;;;8.27;5.15;;;15.30;99.90;;;;;;7339316;19;110395;-72
2022/08/29 05:32:25;;;;;;;14.10;5.22;;;15.30;99.90;;;;;;7340346;19;110578;-73
2022/08/29 05:34:52;;;;;;;10.65;5.07;;;15.30;99.90;;;;;;7336698;19;111120;-72
2022/08/29 05:37:20;;;;;;;14.45;5.65;;;15.30;99.90;;;;;;7338505;19;110156;-73
2022/08/29 05:39:48;;;;;;;14.00;5.80;;;15.30;99.90;;;;;;7335444;19;110467;-72
2022/08/29 05:42:16;;;;;;;14.45;5.45;;;15.30;99.90;;;;;;7337256;19;111432;-71
2022/08/29 05:44:43;;;;;;;12.73;4.97;;;15.40;99.90;;;;;;7345225;19;109590;-71
2022/08/29 05:47:12;;;;;;;13.25;5.38;;;15.40;99.90;;;;;;7338734;19;110161;-71
2022/08/29 05:49:41;;;;;;;9.23;5.82;;;15.50;99.90;;;;;;7339556;19;109306;-71
2022/08/29 05:52:10;;;;;;;13.07;5.80;;;15.60;99.90;;;;;;7338698;19;110583;-71
2022/08/29 05:54:39;;;;;;;10.57;6.20;;;15.60;99.90;;;;;;7339743;19;110248;-71
2022/08/29 05:57:08;;;;;;;19.38;6.68;;;15.60;99.90;;;;;;7337402;19;109477;-71
2022/08/29 05:59:36;;;;;;;11.73;6.10;;;15.50;99.90;;;;;;7339507;19;110494;-72
2022/08/29 06:02:06;;;;;;;13.48;6.20;;;15.50;99.90;;;;;;7339131;19;111242;-72
2022/08/29 06:04:34;;;;;;;12.80;5.88;;;15.50;99.90;;;;;;7339502;19;109306;-71
2022/08/29 06:07:02;;;;;;;15.52;6.00;;;15.50;99.90;;;;;;7344274;19;110805;-71
2022/08/29 06:09:29;;;;;;;14.75;6.75;;;15.50;99.90;;;;;;7336371;19;109767;-71
2022/08/29 06:11:59;;;;;;;18.85;5.70;;;15.50;99.90;;;;;;7336595;19;111142;-71
2022/08/29 06:14:26;;;;;;;13.07;5.80;;;15.60;99.90;;;;;;7338300;19;111261;-71
2022/08/29 06:16:54;;;;;;;14.15;5.97;;;15.70;99.90;;;;;;7337882;19;109457;-71
2022/08/29 06:19:21;;;;;;;17.42;6.03;;;15.70;99.90;;;;;;7338376;19;110460;-71
2022/08/29 06:21:48;;;;;;;12.35;6.00;;;15.70;99.90;;;;;;7336571;19;109948;-71
2022/08/29 06:24:16;;;;;;;13.13;5.28;;;15.80;99.90;;;;;;7338410;19;110578;-71
2022/08/29 06:26:44;;;;;;;13.18;5.85;;;15.90;99.90;;;;;;7336172;19;110584;-71
2022/08/29 06:29:11;;;;;;;11.57;6.10;;;15.90;99.90;;;;;;7343019;19;110635;-71
2022/08/29 06:31:38;;;;;;;15.70;6.10;;;15.90;99.90;;;;;;7338123;19;111771;-71
2022/08/29 06:34:06;;;;;;;14.60;5.45;;;16.00;99.90;;;;;;7337163;19;111479;-71
2022/08/29 06:36:34;;;;;;;16.45;5.80;;;16.20;99.90;;;;;;7335309;19;109813;-72
2022/08/29 06:39:05;;;;;;;8.65;5.43;;;16.30;99.90;;;;;;7336451;19;111237;-71
2022/08/29 06:41:33;;;;;;;10.68;5.57;;;16.40;99.90;;;;;;7336328;19;111002;-71
2022/08/29 06:44:01;;;;;;;11.90;5.80;;;16.50;99.90;;;;;;7338311;19;109638;-70
2022/08/29 06:46:34;;;;;;;13.80;5.60;;;16.70;99.90;;;;;;7338546;19;110360;-70
2022/08/29 06:49:04;;;;;;;10.35;4.55;;;16.90;99.90;;;;;;7337505;19;111036;-70
2022/08/29 06:51:35;;;;;;;12.82;5.47;;;17.00;99.90;;;;;;7340084;19;109586;-71
2022/08/29 06:54:04;;;;;;;7.88;4.75;;;17.10;99.90;;;;;;7336806;19;110446;-71
2022/08/29 06:56:34;;;;;;;9.68;5.30;;;17.20;99.90;;;;;;7337996;19;109690;-70
2022/08/29 06:59:04;;;;;;;15.80;4.70;;;17.30;99.90;;;;;;7337909;19;109931;-70
2022/08/29 07:01:31;;;;;;;14.68;4.30;;;17.40;99.90;;;;;;7336271;19;110872;-70
2022/08/29 07:04:00;;;;;;;12.52;4.30;;;17.50;99.90;;;;;;7338349;19;110184;-70
2022/08/29 07:06:27;;;;;;;14.75;4.40;;;17.60;99.90;;;;;;7337373;19;109830;-70
2022/08/29 07:08:56;;;;;;;13.27;4.72;;;17.60;99.90;;;;;;7337090;19;110117;-71
2022/08/29 07:11:25;;;;;;;12.45;4.47;;;17.70;99.90;;;;;;7342566;19;109908;-70
2022/08/29 07:13:54;;;;;;;14.73;4.47;;;17.80;99.90;;;;;;7336639;19;111539;-70
2022/08/29 07:16:21;;;;;;;15.40;3.60;;;17.90;99.90;;;;;;7334312;19;110046;-71
2022/08/29 07:18:48;;;;;;;11.13;3.10;;;17.90;99.90;;;;;;7334261;19;110593;-70
2022/08/29 07:21:18;;;;;;;10.00;3.15;;;17.90;99.90;;;;;;7336404;19;110235;-70
2022/08/29 07:23:48;;;;;;;12.90;3.35;;;18.00;99.90;;;;;;7337369;19;109470;-71
2022/08/29 07:26:22;;;;;;;11.40;3.20;;;18.10;99.90;;;;;;7336277;19;110707;-71
2022/08/29 07:28:51;;;;;;;13.98;3.33;;;18.20;99.90;;;;;;7335606;19;111341;-70
2022/08/29 07:31:18;;;;;;;31.27;3.97;;;18.30;99.90;;;;;;7336982;19;109326;-71
2022/08/29 07:33:46;;;;;;;13.95;3.70;;;18.40;99.90;;;;;;7341566;19;109615;-70
2022/08/29 07:36:20;;;;;;;9.60;3.72;;;18.40;99.90;;;;;;7335146;19;110416;-71
2022/08/29 07:38:47;;;;;;;10.48;3.10;;;18.40;99.90;;;;;;7332417;19;112186;-72
2022/08/29 07:41:14;;;;;;;8.93;3.17;;;18.50;99.90;;;;;;7335788;19;111207;-70
2022/08/29 07:43:42;;;;;;;10.35;3.15;;;18.40;99.90;;;;;;7333794;19;109821;-70
2022/08/29 07:46:19;;;;;;;7.28;3.45;;;18.40;99.90;;;;;;7335910;19;109853;-71
2022/08/29 07:48:47;;;;;;;12.63;4.22;;;18.30;99.90;;;;;;7334320;19;111336;-71
2022/08/29 07:51:17;;;;;;;10.05;3.53;;;18.30;99.90;;;;;;7336910;19;109470;-70
2022/08/29 07:53:45;;;;;;;8.50;3.58;;;18.40;99.90;;;;;;7335320;19;109447;-72
2022/08/29 07:56:16;;;;;;;8.80;3.30;;;18.50;99.90;;;;;;7341381;19;111489;-71
2022/08/29 07:58:44;;;;;;;13.88;3.45;;;18.60;99.90;;;;;;7330590;19;110695;-71
2022/08/29 08:01:11;;;;;;;8.32;3.80;;;18.60;99.90;;;;;;7335006;19;111220;-76
2022/08/29 08:03:47;;;;;;;9.68;3.70;;;18.60;99.90;;;;;;7337685;19;110966;-79
2022/08/29 08:06:16;;;;;;;9.57;3.65;;;18.70;99.90;;;;;;7339556;19;109592;-78
2022/08/29 08:08:43;;;;;;;7.18;3.92;;;18.80;99.90;;;;;;7342779;19;111240;-76
2022/08/29 08:11:10;;;;;;;8.82;3.47;;;18.80;99.90;;;;;;7340517;19;109589;-78
2022/08/29 08:13:38;;;;;;;11.45;3.60;;;18.90;99.90;;;;;;7342269;19;110509;-76
2022/08/29 08:16:07;;;;;;;13.45;4.03;;;18.90;99.90;;;;;;7335021;19;110862;-75
2022/08/29 08:18:36;;;;;;;8.43;3.70;;;19.10;99.90;;;;;;7345677;19;110086;-76
2022/08/29 08:21:04;;;;;;;10.43;3.50;;;19.20;99.90;;;;;;7340627;19;111650;-77
2022/08/29 08:23:32;;;;;;;11.20;3.63;;;19.30;99.90;;;;;;7342241;19;109872;-73
2022/08/29 08:26:00;;;;;;;16.65;4.63;;;19.40;99.90;;;;;;7342879;19;110630;-74
2022/08/29 08:28:29;;;;;;;13.57;4.25;;;19.40;99.90;;;;;;7342108;19;111302;-74
2022/08/29 08:30:58;;;;;;;7.13;3.13;;;19.50;99.90;;;;;;7341953;19;109686;-75
2022/08/29 08:33:32;;;;;;;9.40;3.45;;;19.40;99.80;;;;;;7340723;19;110431;-74
2022/08/29 08:36:02;;;;;;;11.10;3.65;;;19.40;99.30;;;;;;7340094;19;111125;-74
2022/08/29 08:38:30;;;;;;;7.93;3.53;;;19.30;99.20;;;;;;7340447;19;109516;-75
2022/08/29 08:41:04;;;;;;;9.90;3.05;;;19.30;99.10;;;;;;7346310;19;109489;-74
2022/08/29 08:43:57;;;;;;;6.38;2.97;;;19.20;98.50;;;;;;7342245;19;109934;-74
2022/08/29 08:46:37;;;;;;;6.53;3.08;;;19.20;98.40;;;;;;7339629;19;110223;-74
2022/08/29 08:49:11;;;;;;;5.50;3.03;;;19.20;98.50;;;;;;7341404;19;111149;-74
2022/08/29 08:51:50;;;;;;;5.43;3.03;;;19.30;98.70;;;;;;7342001;19;109681;-74
2022/08/29 08:54:23;;;;;;;12.90;3.40;;;19.30;98.20;;;;;;7339876;19;110857;-74
2022/08/29 08:56:56;;;;;;;8.70;3.85;;;19.40;98.10;;;;;;7340981;19;110308;-74
2022/08/29 08:59:38;;;;;;;10.15;3.08;;;19.40;97.80;;;;;;7339592;19;109528;-74
2022/08/29 09:02:34;;;;;;;12.68;3.70;;;19.50;97.70;;;;;;7344198;19;112269;-74
2022/08/29 09:05:19;;;;;;;7.70;3.15;;;19.50;97.40;;;;;;7340016;19;109411;-74
2022/08/29 09:07:49;;;;;;;7.05;3.40;;;19.40;97.60;;;;;;7341710;19;110480;-74
2022/08/29 09:10:35;;;;;;;9.00;3.10;;;19.40;97.80;;;;;;7339107;19;111672;-74
2022/08/29 09:13:39;;;;;;;7.68;3.17;;;19.50;97.90;;;;;;7338952;19;110159;-74
2022/08/29 09:16:39;;;;;;;6.82;2.78;;;19.60;97.30;;;;;;7339622;19;110473;-74
2022/08/29 09:19:10;;;;;;;8.00;2.65;;;19.60;96.80;;;;;;7340779;19;111860;-74
2022/08/29 09:21:51;;;;;;;5.75;3.10;;;19.50;97.30;;;;;;7340951;19;110298;-74
2022/08/29 09:24:24;;;;;;;7.65;3.00;;;19.50;97.40;;;;;;7339184;19;112270;-74
2022/08/29 09:26:51;;;;;;;7.47;3.47;;;19.70;97.30;;;;;;7346485;19;111316;-74
2022/08/29 09:29:19;;;;;;;6.40;3.20;;;19.90;97.20;;;;;;7341477;19;110801;-74
2022/08/29 09:32:07;;;;;;;9.45;3.30;;;20.10;96.90;;;;;;7341452;19;111208;-74
2022/08/29 09:34:41;;;;;;;10.18;3.15;;;20.10;96.20;;;;;;7340389;19;109325;-74
2022/08/29 09:37:30;;;;;;;7.00;3.22;;;20.20;96.70;;;;;;7339090;19;112748;-74
2022/08/29 09:40:03;;;;;;;9.70;3.50;;;20.40;96.50;;;;;;7340132;19;110337;-74
2022/08/29 09:42:40;;;;;;;7.55;3.00;;;20.60;96.10;;;;;;7336686;19;111205;-74
2022/08/29 09:45:23;;;;;;;6.53;2.80;;;20.70;96.00;;;;;;7337192;19;113195;-74
2022/08/29 09:48:14;;;;;;;8.68;3.22;;;20.80;95.60;;;;;;7339402;19;110966;-74
2022/08/29 09:50:42;;;;;;;10.77;3.35;;;20.80;95.00;;;;;;7344035;19;109482;-74
2022/08/29 09:53:09;;;;;;;5.70;3.10;;;20.90;95.40;;;;;;7337531;19;110730;-74
2022/08/29 09:55:51;;;;;;;10.30;3.13;;;21.00;95.00;;;;;;7339633;19;109650;-74
2022/08/29 09:58:18;;;;;;;8.07;3.35;;;21.00;95.10;;;;;;7338231;19;109819;-74
2022/08/29 10:01:09;;;;;;;6.47;2.85;;;21.20;95.50;;;;;;7338941;19;111490;-74
2022/08/29 10:03:42;;;;;;;9.38;3.13;;;21.50;94.90;;;;;;7337545;19;109544;-74
2022/08/29 10:06:25;;;;;;;21.50;3.30;;;21.70;94.60;;;;;;7338365;19;109917;-74
2022/08/29 10:09:07;;;;;;;16.27;3.08;;;21.80;94.40;;;;;;7340521;19;111178;-74
2022/08/29 10:11:48;;;;;;;7.78;2.83;;;22.00;94.00;;;;;;7339240;19;109703;-74
2022/08/29 10:14:47;;;;;;;21.38;3.30;;;22.10;94.10;;;;;;7344890;19;110323;-74
2022/08/29 10:20:43;;;;;;;12.82;3.38;;;22.30;94.20;;;;;;7337995;19;109952;-74
2022/08/29 10:23:38;;;;;;;16.17;3.60;;;22.40;94.10;;;;;;7339415;19;110984;-74
2022/08/29 10:26:25;;;;;;;11.18;3.47;;;22.60;93.70;;;;;;7337221;19;112606;-74
2022/08/29 10:29:28;;;;;;;8.43;3.17;;;22.50;92.40;;;;;;7338911;19;110526;-74
2022/08/29 10:32:17;;;;;;;11.00;3.50;;;22.40;92.70;;;;;;7338274;19;110524;-74
2022/08/29 10:35:06;;;;;;;6.35;3.15;;;22.30;92.90;;;;;;7334899;19;112702;-74
2022/08/29 10:37:47;;;;;;;6.47;3.08;;;22.30;92.40;;;;;;7337655;19;111006;-74
2022/08/29 10:40:29;;;;;;;6.47;3.10;;;22.20;92.60;;;;;;7342281;19;111275;-74
2022/08/29 10:43:28;;;;;;;11.48;2.88;;;22.40;93.00;;;;;;7335759;19;111094;-74
2022/08/29 10:46:08;;;;;;;12.02;3.78;;;22.60;92.60;;;;;;7336686;19;110482;-74
2022/08/29 10:48:45;;;;;;;8.43;2.90;;;22.80;92.80;;;;;;7337487;19;109732;-74
2022/08/29 10:52:04;;;;;;;8.88;3.10;;;22.80;91.70;;;;;;7337099;19;110796;-74
2022/08/29 10:54:40;;;;;;;8.35;3.28;;;22.80;92.10;;;;;;7333625;19;112090;-74
2022/08/29 10:57:09;;;;;;;10.43;3.28;;;22.80;91.90;;;;;;7338312;19;109717;-74
2022/08/29 10:59:45;;;;;;;13.43;3.20;;;22.80;92.50;;;;;;7329211;19;110716;-74
2022/08/29 11:02:26;;;;;;;16.65;3.00;;;23.00;92.00;;;;;;7334303;19;111288;-74
2022/08/29 11:04:58;;;;;;;15.27;2.80;;;23.10;91.50;;;;;;7341643;19;109823;-74
2022/08/29 11:07:32;;;;;;;10.90;2.88;;;23.30;91.80;;;;;;7336382;19;111250;-74
2022/08/29 11:10:08;;;;;;;5.45;2.55;;;23.40;91.50;;;;;;7337193;19;109625;-74
2022/08/29 11:12:49;;;;;;;6.43;2.70;;;23.40;91.00;;;;;;7337090;19;109807;-74
2022/08/29 11:15:28;;;;;;;15.32;2.50;;;23.60;91.50;;;;;;7334561;19;111045;-77
2022/08/29 11:18:22;;;;;;;5.68;2.90;;;23.60;90.30;;;;;;7337473;19;109586;-74
2022/08/29 11:20:55;;;;;;;5.78;2.65;;;23.50;89.70;;;;;;7335471;19;111436;-73
2022/08/29 11:23:25;;;;;;;7.90;2.53;;;23.30;90.20;;;;;;7337297;19;111126;-74
2022/08/29 11:25:52;;;;;;;5.53;2.33;;;23.10;89.70;;;;;;7343115;19;109358;-73
2022/08/29 11:28:37;;;;;;;7.03;2.63;;;23.00;89.00;;;;;;7337697;19;111210;-74
2022/08/29 11:31:18;;;;;;;4.75;2.30;;;22.90;88.10;;;;;;7337930;19;109489;-74
2022/08/29 11:34:11;;;;;;;5.10;2.35;;;22.90;88.90;;;;;;7336130;19;110883;-74
2022/08/29 11:37:08;;;;;;;5.85;2.63;;;23.00;88.50;;;;;;7335708;19;110251;-74
2022/08/29 11:40:01;;;;;;;5.37;2.20;;;23.10;89.10;;;;;;7340100;19;110704;-73
2022/08/29 11:42:33;;;;;;;11.38;2.60;;;23.30;90.10;;;;;;7342161;19;110652;-73
2022/08/29 11:45:25;;;;;;;5.78;2.53;;;23.70;90.50;;;;;;7344485;19;110646;-73
2022/08/29 11:48:27;;;;;;;15.70;2.92;;;23.90;88.60;;;;;;7344704;19;110518;-77
2022/08/29 11:50:54;;;;;;;5.10;1.90;;;23.90;88.00;;;;;;7349749;19;110500;-74
2022/08/29 11:53:41;;;;;;;7.15;2.10;;;24.00;86.80;;;;;;7341691;19;110649;-73
2022/08/29 11:56:11;;;;;;;7.95;2.08;;;24.00;85.10;;;;;;7344915;19;111765;-73
2022/08/29 11:58:47;;;;;;;9.60;2.90;;;24.10;86.70;;;;;;7341358;19;112273;-73
2022/08/29 12:01:33;;;;;;;8.05;2.92;;;24.40;87.50;;;;;;7344462;19;109338;-73
2022/08/29 12:04:01;;;;;;;9.18;2.53;;;24.50;85.40;;;;;;7342991;19;110702;-74
2022/08/29 12:06:57;;;;;;;7.30;2.00;;;24.80;86.40;;;;;;7343738;19;110186;-74
2022/08/29 12:09:45;;;;;;;5.38;2.28;;;24.90;83.70;;;;;;7344389;19;110292;-74
2022/08/29 12:12:17;;;;;;;4.53;2.15;;;24.90;81.00;;;;;;7342625;19;111987;-74
2022/08/29 12:14:51;;;;;;;6.65;2.00;;;24.90;80.80;;;;;;7349289;19;111587;-75
2022/08/29 12:17:21;;;;;;;4.18;2.20;;;25.00;84.20;;;;;;7340973;19;113150;-74
2022/08/29 12:20:09;;;;;;;6.07;2.28;;;25.20;83.70;;;;;;7341043;19;110326;-75
2022/08/29 12:22:58;;;;;;;8.52;2.08;;;25.20;80.40;;;;;;7343088;19;109478;-74
2022/08/29 12:25:47;;;;;;;7.72;2.15;;;25.30;82.40;;;;;;7343051;19;110062;-75
2022/08/29 12:28:41;;;;;;;7.95;2.50;;;25.40;80.70;;;;;;7342507;19;113263;-74
2022/08/29 12:31:34;;;;;;;4.25;1.90;;;25.50;79.70;;;;;;7344112;19;111603;-75
2022/08/29 12:34:36;;;;;;;3.17;2.17;;;25.40;78.20;;;;;;7340126;19;110572;-75
2022/08/29 12:37:15;;;;;;;5.18;2.05;;;25.30;77.60;;;;;;7342224;19;111036;-75
2022/08/29 12:40:25;;;;;;;6.53;2.08;;;25.10;77.80;;;;;;7343932;19;109723;-74
2022/08/29 12:42:54;;;;;;;4.80;2.50;;;25.40;79.60;;;;;;7342408;19;114591;-74
2022/08/29 12:45:26;;;;;;;3.35;1.85;;;25.40;78.80;;;;;;7341019;19;109558;-74
2022/08/29 12:48:06;;;;;;;7.40;2.08;;;25.60;79.10;;;;;;7342225;19;110395;-74
2022/08/29 12:50:42;;;;;;;5.90;3.53;;;25.90;77.60;;;;;;7338231;19;110401;-75
2022/08/29 12:53:25;;;;;;;6.03;1.98;;;26.10;77.10;;;;;;7342775;19;109651;-74
2022/08/29 12:55:58;;;;;;;5.97;2.65;;;26.40;76.50;;;;;;7342663;19;110505;-74
2022/08/29 12:58:43;;;;;;;11.10;2.25;;;26.30;74.70;;;;;;7340467;19;110192;-74
2022/08/29 13:01:29;;;;;;;12.82;5.30;;;26.50;73.70;;;;;;7342253;19;109871;-75
2022/08/29 13:04:14;;;;;;;5.20;2.58;;;26.50;72.40;;;;;;7345226;19;112742;-75
2022/08/29 13:07:04;;;;;;;17.27;9.75;;;26.30;74.20;;;;;;7341842;19;109652;-75
2022/08/29 13:09:42;;;;;;;3.88;2.33;;;26.40;72.10;;;;;;7339918;19;110352;-74